Latest Weather Observations for Gladstone Airport

IDQ60801

Issued at 2:02 pm EST Saturday 30 May 2015 (issued every 30 minutes, with the page automatically refreshed every 10 minutes)

About weather observations | Map of weather stations | Latest weather observations for QLD | Other Formats
Station Details ID: 039326 Name: GLADSTONE AIRPORT Lat: -23.87 Lon: 151.22 Height: 16.6 m
Data from the previous 72 hours. | See also: Recent months at Gladstone Airport
Date/Time
EST
Temp
°C
App
Temp
°C
Dew
Point
Rel
Hum
%
Delta-T
°C
Wind Press
QNH
hPa
Press
MSL
hPa
Rain
since 9 am
mm
Dir
 
Spd
km/h
Gust
km/h
Spd
kts
Gust
kts
30/02:00pm 25.9 25.3 17.5 59 5.3 ENE 17 28 9 15 1018.7 1018.7 0.0
30/01:30pm 25.9 25.8 17.0 58 5.5 ENE 13 19 7 10 1019.3 1019.3 0.0
30/01:00pm 25.9 25.5 16.2 55 5.9 NNE 13 17 7 9 1019.7 1019.7 0.0
30/12:30pm 25.9 26.3 16.2 55 6.0 ENE 9 15 5 8 1020.1 1020.1 0.0
30/12:00pm 25.5 25.2 17.4 61 5.0 NE 15 19 8 10 1020.8 1020.8 0.0
30/11:30am 25.6 25.7 17.5 61 5.1 NE 13 19 7 10 1021.3 1021.3 0.0
30/11:00am 24.8 26.5 18.5 68 4.0 ESE 7 11 4 6 1022.0 1022.0 0.0
30/10:30am 23.8 25.4 17.8 69 3.7 E 6 11 3 6 1022.4 1022.4 0.0
30/10:00am 24.0 25.8 18.4 71 3.5 SSW 6 7 3 4 1022.9 1022.9 0.0
30/09:30am 23.2 24.9 18.5 75 3.0 SW 7 11 4 6 1023.0 1023.0 0.0
30/09:00am 21.4 22.2 17.4 78 2.5 SW 9 13 5 7 1023.2 1023.2 0.0
30/08:00am 18.6 18.7 16.4 87 1.3 SSW 11 15 6 8 1022.7 1022.7 0.0
30/07:30am 17.2 16.2 15.5 90 1.0 SSW 15 19 8 10 1022.4 1022.4 0.0
30/07:00am 16.5 15.7 15.2 92 0.8 SSW 13 17 7 9 1022.2 1022.2 0.0
30/06:30am 16.3 15.5 15.0 92 0.8 SSW 13 17 7 9 1021.9 1021.9 0.0
30/06:00am 16.4 15.6 15.1 92 0.7 SSW 13 17 7 9 1021.6 1021.6 0.0
30/05:30am 16.5 15.7 15.2 92 0.8 SSW 13 17 7 9 1021.8 1021.8 0.0
30/05:00am 16.7 16.4 15.4 92 0.8 SSW 11 15 6 8 1021.4 1021.4 0.0
30/04:30am 16.9 16.7 15.6 92 0.8 SSW 11 15 6 8 1021.3 1021.3 0.0
30/04:00am 16.9 16.7 15.6 92 0.8 SSW 11 15 6 8 1021.2 1021.2 0.0
30/03:30am 17.3 17.3 16.2 93 0.7 SSW 11 15 6 8 1021.2 1021.2 0.0
30/03:00am 17.3 17.2 16.0 92 0.8 SSW 11 15 6 8 1021.2 1021.2 0.0
30/02:30am 17.6 17.6 16.3 92 0.8 SSW 11 15 6 8 1021.3 1021.3 0.0
30/02:00am 17.7 17.8 16.4 92 0.8 SSW 11 15 6 8 1021.6 1021.6 0.0
30/01:30am 18.1 18.3 16.8 92 0.8 SSW 11 13 6 7 1021.8 1021.8 0.0
30/01:00am 18.2 18.5 16.9 92 0.8 SSW 11 15 6 8 1022.1 1022.1 0.0
30/12:30am 18.6 19.4 17.3 92 0.8 SSW 9 11 5 6 1022.4 1022.4 0.0
30/12:00am 18.7 19.5 17.4 92 0.8 SSW 9 13 5 7 1022.5 1022.5 0.0
 
Date/Time
EST
Temp
°C
App
Temp
°C
Dew
Point
Rel
Hum
%
Delta-T
°C
Wind Press
QNH
hPa
Press
MSL
hPa
Rain
since 9 am
mm
Dir
 
Spd
km/h
Gust
km/h
Spd
kts
Gust
kts
29/11:30pm 18.9 19.7 17.4 91 0.9 SSW 9 13 5 7 1022.8 1022.8 0.0
29/11:00pm 19.2 20.7 17.7 91 0.9 SSW 6 7 3 4 1022.9 1022.9 0.0
29/10:30pm 19.4 21.0 17.9 91 0.9 SSW 6 7 3 4 1023.1 1023.1 0.0
29/10:00pm 19.4 20.9 17.5 89 1.2 SSE 6 7 3 4 1023.1 1023.1 0.0
29/09:00pm 20.6 22.5 18.5 88 1.3 ESE 6 6 3 3 1022.9 1022.9 0.0
29/08:30pm 20.9 22.8 19.0 89 1.2 ESE 7 9 4 5 1023.0 1023.0 0.0
29/08:00pm 21.0 22.9 18.9 88 1.3 ESE 7 9 4 5 1022.9 1022.9 0.0
29/07:30pm 21.2 22.7 18.9 87 1.4 ESE 9 13 5 7 1022.7 1022.7 0.0
29/07:00pm 21.3 22.3 18.7 85 1.6 ESE 11 13 6 7 1022.6 1022.6 0.0
29/06:30pm 21.7 22.6 18.5 82 2.0 ESE 11 15 6 8 1022.3 1022.3 0.0
29/06:00pm 22.0 22.5 18.4 80 2.2 ESE 13 15 7 8 1021.9 1021.9 0.0
29/05:30pm 22.4 23.7 18.4 78 2.5 ESE 9 13 5 7 1021.7 1021.7 0.0
29/05:00pm 23.1 23.3 17.6 71 3.4 ENE 13 19 7 10 1021.6 1021.6 0.0
29/04:30pm 23.5 22.8 17.3 68 3.8 ENE 17 20 9 11 1021.3 1021.3 0.0
29/04:00pm 24.2 23.1 17.2 65 4.3 ENE 19 22 10 12 1021.0 1021.0 0.0
29/03:30pm 24.8 24.0 17.0 62 4.8 ENE 17 20 9 11 1020.7 1020.7 0.0
29/03:00pm 25.0 24.2 16.2 58 5.4 ENE 15 20 8 11 1020.6 1020.6 0.0
29/02:30pm 25.2 24.2 16.6 59 5.3 NE 17 20 9 11 1020.7 1020.7 0.0
29/02:00pm 25.5 25.0 16.9 59 5.3 ESE 15 19 8 10 1020.9 1020.9 0.0
29/01:30pm 24.6 23.6 16.6 61 4.9 ESE 17 20 9 11 1021.0 1021.0 0.0
29/01:00pm 25.4 25.0 17.1 60 5.1 E 15 22 8 12 1021.4 1021.4 0.0
29/12:30pm 25.5 25.0 16.9 59 5.3 ESE 15 20 8 11 1021.6 1021.6 0.0
29/12:00pm 24.5 23.3 16.2 60 5.0 ESE 17 20 9 11 1022.3 1022.3 0.0
29/11:30am 24.8 24.8 17.3 63 4.7 ESE 13 19 7 10 1022.6 1022.6 0.0
29/11:00am 24.1 25.0 17.6 67 4.0 SE 9 17 5 9 1023.2 1023.2 0.0
29/10:30am 23.9 24.8 17.6 68 3.9 SE 9 13 5 7 1023.7 1023.6 0.0
29/10:00am 23.2 23.7 17.4 70 3.6 SSE 11 15 6 8 1023.9 1023.8 0.0
29/09:30am 21.9 23.4 17.5 76 2.7 SW 6 11 3 6 1024.2 1024.1 0.0
29/09:00am 20.6 21.0 16.2 76 2.6 SSW 9 13 5 7 1024.1 1024.0 0.0
29/08:30am 19.6 19.4 15.7 78 2.3 SSW 11 17 6 9 1024.2 1024.1 0.0
29/08:00am 18.1 17.7 15.2 83 1.7 SSW 11 17 6 9 1023.9 1023.8 0.0
29/07:30am 17.0 16.4 14.6 86 1.4 SSW 11 17 6 9 1023.6 1023.5 0.0
29/07:00am 16.1 15.7 14.1 88 1.1 SSW 9 13 5 7 1023.2 1023.2 0.0
29/06:30am 15.8 15.4 14.0 89 1.0 SW 9 15 5 8 1022.9 1022.9 0.0
29/06:00am 16.1 15.7 14.1 88 1.1 SSW 9 15 5 8 1022.6 1022.6 0.0
29/05:30am 16.0 14.9 14.2 89 1.0 SSW 13 17 7 9 1022.2 1022.2 0.0
29/05:00am 16.2 15.9 14.4 89 1.0 SW 9 11 5 6 1022.1 1022.1 0.0
29/04:30am 16.1 15.4 14.3 89 1.0 SSW 11 13 6 7 1022.0 1022.0 0.0
29/04:00am 16.2 15.5 14.4 89 1.0 SSW 11 15 6 8 1021.7 1021.7 0.0
29/03:30am 16.1 15.8 14.3 89 1.0 SSW 9 13 5 7 1021.8 1021.8 0.0
29/03:00am 16.3 15.7 14.5 89 1.0 SSW 11 15 6 8 1022.3 1022.3 0.0
29/02:30am 16.4 15.8 14.6 89 1.0 SSW 11 15 6 8 1022.2 1022.2 0.0
29/02:00am 17.0 16.8 14.8 87 1.3 SSW 9 13 5 7 1022.3 1022.3 0.0
29/01:30am 17.3 17.6 14.9 86 1.4 SSW 7 11 4 6 1022.4 1022.4 0.0
29/01:00am 17.3 17.1 14.8 85 1.4 SSW 9 13 5 7 1022.7 1022.7 0.0
29/12:30am 17.5 17.7 14.6 83 1.7 SSW 7 11 4 6 1022.6 1022.6 0.0
29/12:00am 17.8 18.0 14.7 82 1.8 SSW 7 9 4 5 1022.8 1022.8 0.0
 
Date/Time
EST
Temp
°C
App
Temp
°C
Dew
Point
Rel
Hum
%
Delta-T
°C
Wind Press
QNH
hPa
Press
MSL
hPa
Rain
since 9 am
mm
Dir
 
Spd
km/h
Gust
km/h
Spd
kts
Gust
kts
28/11:30pm 18.0 18.1 14.5 80 2.0 SSW 7 9 4 5 1022.9 1022.9 0.0
28/11:00pm 19.0 19.4 14.7 76 2.5 SSE 6 9 3 5 1023.0 1023.0 0.0
28/10:30pm 19.1 19.4 14.6 75 2.6 SSE 6 9 3 5 1023.2 1023.2 0.0
28/10:00pm 19.4 19.7 14.9 75 2.6 S 7 11 4 6 1023.6 1023.5 0.0
28/09:30pm 19.3 19.7 15.2 77 2.4 S 7 9 4 5 1023.5 1023.4 0.0
28/09:00pm 19.7 20.3 15.8 78 2.3 SSE 7 11 4 6 1023.2 1023.2 0.0
28/08:30pm 19.7 20.4 16.0 79 2.2 SSE 7 11 4 6 1023.0 1023.0 0.0
28/08:00pm 20.1 20.9 15.9 77 2.5 SSE 6 11 3 6 1023.0 1023.0 0.0
28/07:30pm 20.9 21.3 16.3 75 2.8 SE 9 11 5 6 1022.5 1022.5 0.0
28/07:00pm 21.2 21.9 16.2 73 3.0 SE 7 11 4 6 1022.4 1022.4 0.0
28/06:30pm 21.3 21.4 16.5 74 2.9 ESE 11 15 6 8 1021.9 1021.9 0.0
28/06:00pm 21.8 20.8 16.5 72 3.2 E 17 20 9 11 1021.4 1021.4 0.0
28/05:30pm 22.0 20.8 16.1 69 3.6 ESE 17 24 9 13 1021.2 1021.2 0.0
28/05:00pm 22.6 20.2 15.4 64 4.3 ESE 22 30 12 16 1021.0 1021.0 0.0
28/04:30pm 23.7 21.6 15.2 59 5.1 ESE 20 28 11 15 1020.9 1020.9 0.0
28/04:00pm 24.0 21.8 15.0 57 5.4 E 20 28 11 15 1020.8 1020.8 0.0
28/03:30pm 24.3 22.9 15.5 58 5.3 ENE 17 22 9 12 1020.7 1020.7 0.0
28/03:00pm 24.3 22.3 15.5 58 5.3 E 20 26 11 14 1020.9 1020.9 0.0
28/02:30pm 25.2 23.9 15.8 56 5.7 E 17 22 9 12 1020.8 1020.8 0.0
28/02:00pm 25.1 23.4 15.7 56 5.7 E 19 24 10 13 1020.9 1020.9 0.0
28/01:30pm 24.7 22.9 15.6 57 5.5 E 19 26 10 14 1021.0 1021.0 0.0
28/01:00pm 25.3 23.4 15.3 54 6.0 E 19 26 10 14 1021.3 1021.3 0.0
28/12:30pm 24.9 23.3 15.0 54 5.9 E 17 22 9 12 1021.6 1021.6 0.0
28/12:00pm 25.6 23.4 15.0 52 6.4 E 20 28 11 15 1022.2 1022.2 0.0
28/11:30am 24.7 23.4 15.9 58 5.4 E 17 24 9 13 1022.5 1022.5 0.0
28/11:00am 24.8 23.0 15.4 56 5.7 E 19 26 10 14 1022.7 1022.7 0.0
28/10:30am 23.7 23.1 15.7 61 4.8 ESE 13 22 7 12 1023.0 1023.0 0.0
28/10:00am 23.4 22.7 16.4 64 4.3 SE 15 24 8 13 1023.3 1023.3 0.0
28/09:30am 22.8 22.0 16.1 66 4.1 SE 15 22 8 12 1023.5 1023.4 0.0
28/09:00am 21.5 22.0 16.5 73 3.0 SSW 9 11 5 6 1023.3 1023.3 0.0
28/08:30am 20.4 20.8 16.4 78 2.4 SSW 9 13 5 7 1023.1 1023.1 0.0
28/08:00am 18.4 18.4 15.3 82 1.8 SW 9 11 5 6 1022.9 1022.9 0.0
28/07:30am 17.1 17.0 14.9 87 1.3 SSW 9 15 5 8 1022.6 1022.6 0.0
28/07:00am 16.0 15.6 14.2 89 1.0 SSW 9 15 5 8 1022.6 1022.6 0.0
28/06:30am 15.6 15.1 13.8 89 1.0 SW 9 13 5 7 1022.2 1022.2 0.0
28/06:00am 16.2 16.3 14.4 89 1.0 WSW 7 11 4 6 1022.0 1022.0 0.0
28/05:30am 16.4 16.6 14.8 90 0.9 SSW 7 9 4 5 1021.5 1021.5 0.0
28/05:00am 16.4 16.2 14.6 89 1.0 SSW 9 11 5 6 1021.2 1021.2 0.0
28/04:30am 16.9 16.5 15.2 90 1.0 SSW 11 13 6 7 1021.2 1021.2 0.0
28/04:00am 16.8 16.8 15.2 90 0.9 SSW 9 11 5 6 1021.1 1021.1 0.0
28/03:30am 17.0 17.0 15.2 89 1.0 SSW 9 13 5 7 1020.9 1020.9 0.0
28/03:00am 17.0 17.5 15.0 88 1.2 S 6 7 3 4 1020.9 1020.9 0.0
28/02:30am 17.1 17.4 15.1 88 1.2 S 7 9 4 5 1021.0 1021.0 0.0
28/02:00am 17.2 17.5 15.0 87 1.3 SSW 7 9 4 5 1021.4 1021.4 0.0
28/01:30am 17.3 17.2 14.9 86 1.4 SW 9 13 5 7 1021.7 1021.7 0.0
28/01:00am 18.0 18.4 15.3 84 1.6 SSW 7 9 4 5 1021.9 1021.9 0.0
28/12:30am 18.0 18.0 15.1 83 1.7 SSW 9 13 5 7 1022.1 1022.1 0.0
28/12:00am 19.1 19.4 16.0 82 1.8 S 9 13 5 7 1021.7 1021.7 0.0
 
Date/Time
EST
Temp
°C
App
Temp
°C
Dew
Point
Rel
Hum
%
Delta-T
°C
Wind Press
QNH
hPa
Press
MSL
hPa
Rain
since 9 am
mm
Dir
 
Spd
km/h
Gust
km/h
Spd
kts
Gust
kts
27/11:30pm 19.1 19.6 15.6 80 2.1 SSE 7 11 4 6 1021.5 1021.5 0.0
27/11:00pm 19.4 19.4 15.3 77 2.4 SSE 9 13 5 7 1022.0 1022.0 0.0
27/10:30pm 19.5 19.6 15.4 77 2.4 SSE 9 13 5 7 1022.5 1022.5 0.0
27/10:00pm 19.4 19.8 15.3 77 2.4 SSE 7 11 4 6 1022.2 1022.2 0.0
27/09:30pm 19.9 20.1 15.7 77 2.5 SE 9 11 5 6 1021.9 1021.9 0.0
27/09:00pm 19.9 20.3 16.2 79 2.2 SE 9 11 5 6 1021.8 1021.8 0.0
27/08:30pm 19.7 20.4 16.2 80 2.1 SSE 7 11 4 6 1022.1 1022.1 0.0
27/08:00pm 20.5 21.0 16.5 78 2.4 SE 9 13 5 7 1022.2 1022.2 0.0
27/07:30pm 20.5 20.5 16.3 77 2.5 ESE 11 15 6 8 1021.9 1021.9 0.0
27/07:00pm 21.0 20.5 16.0 73 3.0 ESE 13 15 7 8 1021.8 1021.8 0.0
27/06:30pm 21.1 20.2 15.9 72 3.1 ESE 15 20 8 11 1021.6 1021.6 0.0
27/06:00pm 21.5 20.1 15.6 69 3.5 ESE 17 22 9 12 1021.1 1021.1 0.0
27/05:30pm 21.9 20.0 14.3 62 4.4 E 17 20 9 11 1020.9 1020.9 0.0
27/05:00pm 22.5 20.3 14.4 60 4.7 E 19 24 10 13 1020.6 1020.6 0.0
27/04:30pm 23.2 20.6 13.9 56 5.4 ESE 20 26 11 14 1020.3 1020.3 0.0
27/04:00pm 24.5 22.4 13.7 51 6.3 ESE 17 24 9 13 1020.1 1020.1 0.0
27/03:30pm 24.5 22.4 14.6 54 5.9 E 19 24 10 13 1020.4 1020.4 0.0
27/03:00pm 24.4 22.7 14.8 55 5.7 E 17 22 9 12 1020.3 1020.3 0.0
27/02:30pm 24.5 22.6 15.1 55 5.6 ENE 19 26 10 14 1020.2 1020.2 0.0

Other Formats:

Comma delimited format used in spreadsheet applications
http://www.bom.gov.au/fwo/IDQ60801/IDQ60801.94381.axf

JavaScript Object Notation format (JSON) in row-major order
http://www.bom.gov.au/fwo/IDQ60801/IDQ60801.94381.json